Terminal Aerodrome Forecast
Issued by NWS

Home | Current Version | Previous Version | Text Only | Print | Product List | Glossary On
Versions: 1 2 3 4 5 6 7 8 9 10 11 12
000
FTUS43 KGRR 261140
TAFJXN
TAF
KJXN 261140Z 2612/2712 14008KT P6SM BKN120
     FM261400 17012G20KT P6SM BKN070
     FM262200 17012KT P6SM VCSH OVC035
     FM270200 17013KT 3SM -RA BR VCTS OVC015CB
     FM270500 14012KT 4SM BR VCSH OVC025=

USA.gov is the U.S. government's official web portal to all federal, state and local government web resources and services.